sensor_id;sensor_type;location;lat;lon;timestamp;pressure;altitude;pressure_sealevel;temperature;humidity
17649;BME280;8943;51.110;-4.158;2022-09-20T00:01:27;102169.22;;;20.09;50.34
17649;BME280;8943;51.110;-4.158;2022-09-20T00:03:59;102183.19;;;20.14;50.36
17649;BME280;8943;51.110;-4.158;2022-09-20T00:06:31;102181.31;;;20.15;50.14
17649;BME280;8943;51.110;-4.158;2022-09-20T00:09:00;102174.78;;;20.08;50.44
17649;BME280;8943;51.110;-4.158;2022-09-20T00:11:32;102177.22;;;20.11;50.53
17649;BME280;8943;51.110;-4.158;2022-09-20T00:14:03;102172.75;;;20.10;50.31
17649;BME280;8943;51.110;-4.158;2022-09-20T00:16:36;102164.94;;;20.06;50.51
17649;BME280;8943;51.110;-4.158;2022-09-20T00:19:05;102168.94;;;20.02;50.49
17649;BME280;8943;51.110;-4.158;2022-09-20T00:21:34;102177.47;;;19.98;50.46
17649;BME280;8943;51.110;-4.158;2022-09-20T00:24:04;102170.47;;;19.95;50.36
17649;BME280;8943;51.110;-4.158;2022-09-20T00:26:33;102184.13;;;19.94;50.70
17649;BME280;8943;51.110;-4.158;2022-09-20T00:29:02;102178.97;;;19.91;50.85
17649;BME280;8943;51.110;-4.158;2022-09-20T00:31:31;102175.72;;;19.87;50.71
17649;BME280;8943;51.110;-4.158;2022-09-20T00:33:59;102178.53;;;19.86;50.58
17649;BME280;8943;51.110;-4.158;2022-09-20T00:36:44;102173.53;;;19.81;50.59
17649;BME280;8943;51.110;-4.158;2022-09-20T00:39:13;102180.81;;;19.80;50.64
17649;BME280;8943;51.110;-4.158;2022-09-20T00:41:43;102167.13;;;19.72;50.81
17649;BME280;8943;51.110;-4.158;2022-09-20T00:44:40;102169.50;;;19.66;50.66
17649;BME280;8943;51.110;-4.158;2022-09-20T00:47:13;102168.47;;;19.57;50.91
17649;BME280;8943;51.110;-4.158;2022-09-20T00:49:45;102174.13;;;19.54;50.74
17649;BME280;8943;51.110;-4.158;2022-09-20T00:52:14;102169.84;;;19.51;50.87
17649;BME280;8943;51.110;-4.158;2022-09-20T00:54:42;102174.25;;;19.43;50.92
17649;BME280;8943;51.110;-4.158;2022-09-20T00:57:12;102177.47;;;19.37;50.91
17649;BME280;8943;51.110;-4.158;2022-09-20T00:59:43;102172.59;;;19.30;51.00
17649;BME280;8943;51.110;-4.158;2022-09-20T01:02:15;102176.84;;;19.23;50.88
17649;BME280;8943;51.110;-4.158;2022-09-20T01:04:46;102183.63;;;19.18;51.37
17649;BME280;8943;51.110;-4.158;2022-09-20T01:07:18;102182.31;;;19.12;51.00
17649;BME280;8943;51.110;-4.158;2022-09-20T01:09:49;102188.25;;;19.06;51.04
17649;BME280;8943;51.110;-4.158;2022-09-20T01:12:21;102189.03;;;18.97;51.26
17649;BME280;8943;51.110;-4.158;2022-09-20T01:14:50;102186.59;;;18.94;51.33
17649;BME280;8943;51.110;-4.158;2022-09-20T01:17:22;102188.25;;;18.85;51.35
17649;BME280;8943;51.110;-4.158;2022-09-20T01:20:03;102190.47;;;18.80;51.33
17649;BME280;8943;51.110;-4.158;2022-09-20T01:22:42;102190.88;;;18.75;51.43
17649;BME280;8943;51.110;-4.158;2022-09-20T01:25:16;102194.09;;;18.69;51.74
17649;BME280;8943;51.110;-4.158;2022-09-20T01:27:47;102198.00;;;18.65;51.68
17649;BME280;8943;51.110;-4.158;2022-09-20T01:30:19;102201.94;;;18.61;51.55
17649;BME280;8943;51.110;-4.158;2022-09-20T01:33:06;102194.22;;;18.57;51.86
17649;BME280;8943;51.110;-4.158;2022-09-20T01:35:38;102200.72;;;18.54;51.67
17649;BME280;8943;51.110;-4.158;2022-09-20T01:38:18;102191.44;;;18.47;51.57
17649;BME280;8943;51.110;-4.158;2022-09-20T01:40:56;102194.38;;;18.44;51.80
17649;BME280;8943;51.110;-4.158;2022-09-20T01:43:33;102205.47;;;18.41;51.91
17649;BME280;8943;51.110;-4.158;2022-09-20T01:46:10;102204.13;;;18.35;52.00
17649;BME280;8943;51.110;-4.158;2022-09-20T01:48:41;102208.78;;;18.33;51.90
17649;BME280;8943;51.110;-4.158;2022-09-20T01:51:44;102198.63;;;18.25;51.90
17649;BME280;8943;51.110;-4.158;2022-09-20T01:54:51;102190.94;;;18.21;52.00
17649;BME280;8943;51.110;-4.158;2022-09-20T02:00:59;102190.59;;;18.03;52.47
17649;BME280;8943;51.110;-4.158;2022-09-20T02:03:51;102191.81;;;17.99;52.30
17649;BME280;8943;51.110;-4.158;2022-09-20T02:06:43;102196.97;;;17.91;52.38
17649;BME280;8943;51.110;-4.158;2022-09-20T02:09:41;102197.47;;;17.85;52.46
17649;BME280;8943;51.110;-4.158;2022-09-20T02:12:24;102194.66;;;17.75;52.51
17649;BME280;8943;51.110;-4.158;2022-09-20T02:15:06;102187.56;;;17.74;52.60
17649;BME280;8943;51.110;-4.158;2022-09-20T02:17:44;102192.28;;;17.70;52.45
17649;BME280;8943;51.110;-4.158;2022-09-20T02:20:31;102183.72;;;17.65;52.51
17649;BME280;8943;51.110;-4.158;2022-09-20T02:23:15;102180.66;;;17.59;52.44
17649;BME280;8943;51.110;-4.158;2022-09-20T02:26:02;102181.41;;;17.49;52.43
17649;BME280;8943;51.110;-4.158;2022-09-20T02:28:48;102170.84;;;17.46;52.44
17649;BME280;8943;51.110;-4.158;2022-09-20T02:31:30;102172.19;;;17.41;52.59
17649;BME280;8943;51.110;-4.158;2022-09-20T02:34:23;102170.72;;;17.37;52.51
17649;BME280;8943;51.110;-4.158;2022-09-20T02:37:05;102165.81;;;17.31;52.55
17649;BME280;8943;51.110;-4.158;2022-09-20T02:39:47;102174.28;;;17.26;52.56
17649;BME280;8943;51.110;-4.158;2022-09-20T02:42:24;102173.66;;;17.22;52.55
17649;BME280;8943;51.110;-4.158;2022-09-20T02:45:02;102165.06;;;17.17;52.67
17649;BME280;8943;51.110;-4.158;2022-09-20T02:47:36;102158.22;;;17.13;52.55
17649;BME280;8943;51.110;-4.158;2022-09-20T02:50:19;102163.22;;;17.07;52.49
17649;BME280;8943;51.110;-4.158;2022-09-20T02:53:01;102168.22;;;17.00;52.61
17649;BME280;8943;51.110;-4.158;2022-09-20T02:55:39;102151.09;;;16.90;52.70
17649;BME280;8943;51.110;-4.158;2022-09-20T02:58:22;102153.50;;;16.82;52.66
17649;BME280;8943;51.110;-4.158;2022-09-20T03:00:56;102154.84;;;16.76;52.69
17649;BME280;8943;51.110;-4.158;2022-09-20T03:03:36;102154.28;;;16.71;52.83
17649;BME280;8943;51.110;-4.158;2022-09-20T03:06:13;102155.38;;;16.68;52.78
17649;BME280;8943;51.110;-4.158;2022-09-20T03:08:51;102150.47;;;16.62;53.03
17649;BME280;8943;51.110;-4.158;2022-09-20T03:11:27;102157.06;;;16.58;53.09
17649;BME280;8943;51.110;-4.158;2022-09-20T03:14:18;102156.19;;;16.58;52.95
17649;BME280;8943;51.110;-4.158;2022-09-20T03:17:03;102156.31;;;16.56;52.93
17649;BME280;8943;51.110;-4.158;2022-09-20T03:19:45;102158.03;;;16.57;53.08
17649;BME280;8943;51.110;-4.158;2022-09-20T03:22:25;102152.53;;;16.59;53.07
17649;BME280;8943;51.110;-4.158;2022-09-20T03:25:13;102148.03;;;16.59;53.11
17649;BME280;8943;51.110;-4.158;2022-09-20T03:27:55;102149.84;;;16.59;52.92
17649;BME280;8943;51.110;-4.158;2022-09-20T03:30:34;102150.19;;;16.54;53.00
17649;BME280;8943;51.110;-4.158;2022-09-20T03:33:15;102144.41;;;16.47;52.91
17649;BME280;8943;51.110;-4.158;2022-09-20T03:35:59;102149.50;;;16.39;52.75
17649;BME280;8943;51.110;-4.158;2022-09-20T03:38:42;102145.59;;;16.32;52.93
17649;BME280;8943;51.110;-4.158;2022-09-20T03:41:36;102144.09;;;16.28;52.97
17649;BME280;8943;51.110;-4.158;2022-09-20T03:44:18;102145.41;;;16.22;52.78
17649;BME280;8943;51.110;-4.158;2022-09-20T03:46:56;102143.91;;;16.18;52.94
17649;BME280;8943;51.110;-4.158;2022-09-20T03:49:46;102144.38;;;16.12;53.28
17649;BME280;8943;51.110;-4.158;2022-09-20T03:58:33;102145.72;;;15.94;53.12
17649;BME280;8943;51.110;-4.158;2022-09-20T04:01:27;102145.72;;;15.94;53.36
17649;BME280;8943;51.110;-4.158;2022-09-20T04:04:02;102147.44;;;15.95;53.20
17649;BME280;8943;51.110;-4.158;2022-09-20T04:06:46;102148.53;;;15.92;53.33
17649;BME280;8943;51.110;-4.158;2022-09-20T04:12:21;102137.16;;;15.89;52.84
17649;BME280;8943;51.110;-4.158;2022-09-20T04:14:58;102142.66;;;15.87;53.01
17649;BME280;8943;51.110;-4.158;2022-09-20T04:17:40;102138.25;;;15.86;53.00
17649;BME280;8943;51.110;-4.158;2022-09-20T04:20:16;102140.50;;;15.80;53.39
17649;BME280;8943;51.110;-4.158;2022-09-20T04:22:50;102157.81;;;15.76;53.17
17649;BME280;8943;51.110;-4.158;2022-09-20T04:25:26;102153.75;;;15.70;53.36
17649;BME280;8943;51.110;-4.158;2022-09-20T04:28:01;102154.84;;;15.67;53.26
17649;BME280;8943;51.110;-4.158;2022-09-20T04:30:34;102150.84;;;15.60;52.82
17649;BME280;8943;51.110;-4.158;2022-09-20T04:33:15;102157.31;;;15.58;53.20
17649;BME280;8943;51.110;-4.158;2022-09-20T04:39:11;102154.19;;;15.51;53.22
17649;BME280;8943;51.110;-4.158;2022-09-20T04:55:23;102165.38;;;15.19;53.41
17649;BME280;8943;51.110;-4.158;2022-09-20T04:58:34;102163.88;;;15.15;53.53
17649;BME280;8943;51.110;-4.158;2022-09-20T05:01:28;102166.03;;;15.10;53.59
17649;BME280;8943;51.110;-4.158;2022-09-20T05:07:40;102171.84;;;15.04;53.38
17649;BME280;8943;51.110;-4.158;2022-09-20T05:10:32;102167.75;;;14.99;53.42
17649;BME280;8943;51.110;-4.158;2022-09-20T05:13:14;102170.53;;;14.97;53.53
17649;BME280;8943;51.110;-4.158;2022-09-20T05:15:55;102168.69;;;14.98;53.68
17649;BME280;8943;51.110;-4.158;2022-09-20T05:18:57;102171.19;;;15.01;53.47
17649;BME280;8943;51.110;-4.158;2022-09-20T05:21:50;102170.31;;;15.00;53.59
17649;BME280;8943;51.110;-4.158;2022-09-20T05:24:33;102166.88;;;14.98;53.60
17649;BME280;8943;51.110;-4.158;2022-09-20T05:27:20;102174.59;;;15.03;53.59
17649;BME280;8943;51.110;-4.158;2022-09-20T05:30:02;102171.84;;;15.04;53.58
17649;BME280;8943;51.110;-4.158;2022-09-20T05:32:38;102171.06;;;15.02;53.35
17649;BME280;8943;51.110;-4.158;2022-09-20T05:35:18;102170.31;;;15.00;53.54
17649;BME280;8943;51.110;-4.158;2022-09-20T05:37:54;102168.38;;;15.02;53.68
17649;BME280;8943;51.110;-4.158;2022-09-20T05:40:31;102161.84;;;15.06;53.69
17649;BME280;8943;51.110;-4.158;2022-09-20T05:43:08;102162.50;;;15.10;53.96
17649;BME280;8943;51.110;-4.158;2022-09-20T05:45:48;102159.47;;;15.14;53.69
17649;BME280;8943;51.110;-4.158;2022-09-20T05:48:32;102163.56;;;15.20;53.92
17649;BME280;8943;51.110;-4.158;2022-09-20T05:51:08;102169.59;;;15.24;53.66
17649;BME280;8943;51.110;-4.158;2022-09-20T05:53:59;102157.88;;;15.25;53.47
17649;BME280;8943;51.110;-4.158;2022-09-20T05:56:41;102170.56;;;15.23;53.47
17649;BME280;8943;51.110;-4.158;2022-09-20T05:59:22;102166.56;;;15.15;53.63
17649;BME280;8943;51.110;-4.158;2022-09-20T06:02:13;102167.09;;;15.20;53.60
17649;BME280;8943;51.110;-4.158;2022-09-20T06:04:51;102161.31;;;15.14;53.68
17649;BME280;8943;51.110;-4.158;2022-09-20T06:07:36;102157.84;;;15.12;53.50
17649;BME280;8943;51.110;-4.158;2022-09-20T06:10:27;102158.09;;;15.09;53.90
17649;BME280;8943;51.110;-4.158;2022-09-20T06:13:10;102167.75;;;15.11;53.76
17649;BME280;8943;51.110;-4.158;2022-09-20T06:15:51;102163.88;;;15.15;53.76
17649;BME280;8943;51.110;-4.158;2022-09-20T06:18:25;102170.09;;;15.16;53.67
17649;BME280;8943;51.110;-4.158;2022-09-20T06:21:01;102175.28;;;15.19;53.75
17649;BME280;8943;51.110;-4.158;2022-09-20T06:23:33;102167.22;;;15.19;53.61
17649;BME280;8943;51.110;-4.158;2022-09-20T06:26:05;102174.72;;;15.27;53.75
17649;BME280;8943;51.110;-4.158;2022-09-20T06:28:38;102179.88;;;15.30;53.71
17649;BME280;8943;51.110;-4.158;2022-09-20T06:31:09;102181.72;;;15.29;53.47
17649;BME280;8943;51.110;-4.158;2022-09-20T06:33:43;102179.88;;;15.30;53.85
17649;BME280;8943;51.110;-4.158;2022-09-20T06:36:15;102185.91;;;15.33;54.01
17649;BME280;8943;51.110;-4.158;2022-09-20T06:39:10;102177.41;;;15.39;53.94
17649;BME280;8943;51.110;-4.158;2022-09-20T06:42:01;102186.66;;;15.48;53.92
17649;BME280;8943;51.110;-4.158;2022-09-20T06:44:29;102193.09;;;15.58;53.89
17649;BME280;8943;51.110;-4.158;2022-09-20T06:46:57;102185.59;;;15.63;54.13
17649;BME280;8943;51.110;-4.158;2022-09-20T06:49:25;102188.59;;;15.72;53.80
17649;BME280;8943;51.110;-4.158;2022-09-20T06:51:54;102190.72;;;15.79;53.82
17649;BME280;8943;51.110;-4.158;2022-09-20T06:54:24;102184.81;;;15.87;53.70
17649;BME280;8943;51.110;-4.158;2022-09-20T06:56:53;102188.00;;;15.92;53.65
17649;BME280;8943;51.110;-4.158;2022-09-20T06:59:21;102193.91;;;15.97;53.83
17649;BME280;8943;51.110;-4.158;2022-09-20T07:01:50;102193.34;;;16.05;53.60
17649;BME280;8943;51.110;-4.158;2022-09-20T07:04:18;102190.31;;;16.09;53.71
17649;BME280;8943;51.110;-4.158;2022-09-20T07:06:47;102192.56;;;16.15;53.66
17649;BME280;8943;51.110;-4.158;2022-09-20T07:09:15;102188.66;;;16.19;53.68
17649;BME280;8943;51.110;-4.158;2022-09-20T07:11:45;102205.22;;;16.26;54.04
17649;BME280;8943;51.110;-4.158;2022-09-20T07:14:13;102200.38;;;16.31;53.53
17649;BME280;8943;51.110;-4.158;2022-09-20T07:16:41;102196.47;;;16.35;53.57
17649;BME280;8943;51.110;-4.158;2022-09-20T07:19:10;102193.31;;;16.41;53.24
17649;BME280;8943;51.110;-4.158;2022-09-20T07:21:38;102203.84;;;16.44;53.58
17649;BME280;8943;51.110;-4.158;2022-09-20T07:24:06;102203.16;;;16.54;53.24
17649;BME280;8943;51.110;-4.158;2022-09-20T07:26:34;102199.88;;;16.61;53.45
17649;BME280;8943;51.110;-4.158;2022-09-20T07:29:04;102202.88;;;16.69;53.49
17649;BME280;8943;51.110;-4.158;2022-09-20T07:31:32;102205.00;;;16.77;53.59
17649;BME280;8943;51.110;-4.158;2022-09-20T07:34:00;102200.53;;;16.89;53.39
17649;BME280;8943;51.110;-4.158;2022-09-20T07:36:28;102200.78;;;16.97;53.49
17649;BME280;8943;51.110;-4.158;2022-09-20T07:38:56;102207.94;;;17.09;53.64
17649;BME280;8943;51.110;-4.158;2022-09-20T07:41:24;102203.28;;;17.22;53.60
17649;BME280;8943;51.110;-4.158;2022-09-20T07:43:55;102207.00;;;17.33;53.48
17649;BME280;8943;51.110;-4.158;2022-09-20T07:46:46;102197.56;;;17.49;53.46
17649;BME280;8943;51.110;-4.158;2022-09-20T07:49:14;102198.19;;;17.64;53.32
17649;BME280;8943;51.110;-4.158;2022-09-20T07:51:43;102197.13;;;17.78;53.26
17649;BME280;8943;51.110;-4.158;2022-09-20T07:54:11;102194.78;;;17.96;53.04
17649;BME280;8943;51.110;-4.158;2022-09-20T07:56:39;102195.47;;;18.09;53.31
17649;BME280;8943;51.110;-4.158;2022-09-20T07:59:07;102204.28;;;18.22;53.50
17649;BME280;8943;51.110;-4.158;2022-09-20T08:01:37;102202.00;;;18.39;53.46
17649;BME280;8943;51.110;-4.158;2022-09-20T08:04:06;102198.16;;;18.52;52.96
17649;BME280;8943;51.110;-4.158;2022-09-20T08:06:35;102212.22;;;18.67;52.96
17649;BME280;8943;51.110;-4.158;2022-09-20T08:09:04;102210.97;;;18.83;53.02
17649;BME280;8943;51.110;-4.158;2022-09-20T08:11:37;102214.94;;;18.99;52.92
17649;BME280;8943;51.110;-4.158;2022-09-20T08:14:06;102217.44;;;19.12;52.69
17649;BME280;8943;51.110;-4.158;2022-09-20T08:16:37;102221.03;;;19.22;52.62
17649;BME280;8943;51.110;-4.158;2022-09-20T08:19:10;102217.44;;;19.33;52.58
17649;BME280;8943;51.110;-4.158;2022-09-20T08:21:41;102228.75;;;19.48;52.54
17649;BME280;8943;51.110;-4.158;2022-09-20T08:24:10;102229.66;;;19.58;52.54
17649;BME280;8943;51.110;-4.158;2022-09-20T08:26:38;102235.56;;;19.63;52.49
17649;BME280;8943;51.110;-4.158;2022-09-20T08:29:07;102237.50;;;19.82;52.29
17649;BME280;8943;51.110;-4.158;2022-09-20T08:31:37;102238.06;;;19.86;52.27
17649;BME280;8943;51.110;-4.158;2022-09-20T08:34:11;102241.41;;;19.99;52.32
17649;BME280;8943;51.110;-4.158;2022-09-20T08:36:42;102241.88;;;20.14;52.12
17649;BME280;8943;51.110;-4.158;2022-09-20T08:39:12;102238.91;;;20.26;52.28
17649;BME280;8943;51.110;-4.158;2022-09-20T08:42:09;102240.22;;;20.42;51.90
17649;BME280;8943;51.110;-4.158;2022-09-20T08:44:46;102236.16;;;20.57;52.17
17649;BME280;8943;51.110;-4.158;2022-09-20T08:47:28;102243.69;;;20.73;52.03
17649;BME280;8943;51.110;-4.158;2022-09-20T08:50:03;102248.28;;;20.92;51.79
17649;BME280;8943;51.110;-4.158;2022-09-20T08:52:38;102245.97;;;21.06;51.71
17649;BME280;8943;51.110;-4.158;2022-09-20T08:55:13;102248.50;;;21.27;51.64
17649;BME280;8943;51.110;-4.158;2022-09-20T08:57:46;102251.53;;;21.44;51.45
17649;BME280;8943;51.110;-4.158;2022-09-20T09:00:18;102246.34;;;21.50;51.17
17649;BME280;8943;51.110;-4.158;2022-09-20T09:02:48;102255.03;;;21.64;51.06
17649;BME280;8943;51.110;-4.158;2022-09-20T09:05:30;102249.25;;;21.76;50.89
17649;BME280;8943;51.110;-4.158;2022-09-20T09:07:59;102240.94;;;21.88;50.66
17649;BME280;8943;51.110;-4.158;2022-09-20T09:10:33;102241.75;;;21.98;50.79
17649;BME280;8943;51.110;-4.158;2022-09-20T09:13:15;102238.13;;;22.07;50.07
17649;BME280;8943;51.110;-4.158;2022-09-20T09:15:46;102252.84;;;22.14;49.92
17649;BME280;8943;51.110;-4.158;2022-09-20T09:18:18;102254.53;;;22.15;49.85
17649;BME280;8943;51.110;-4.158;2022-09-20T09:20:49;102250.53;;;22.19;49.61
17649;BME280;8943;51.110;-4.158;2022-09-20T09:23:22;102254.50;;;22.25;49.43
17649;BME280;8943;51.110;-4.158;2022-09-20T09:25:53;102253.34;;;22.27;49.34
17649;BME280;8943;51.110;-4.158;2022-09-20T09:28:24;102251.09;;;22.23;49.14
17649;BME280;8943;51.110;-4.158;2022-09-20T09:31:11;102256.44;;;22.32;49.56
17649;BME280;8943;51.110;-4.158;2022-09-20T09:33:44;102245.31;;;22.35;49.14
17649;BME280;8943;51.110;-4.158;2022-09-20T09:36:16;102255.16;;;22.36;48.93
17649;BME280;8943;51.110;-4.158;2022-09-20T09:38:45;102257.69;;;22.38;48.75
17649;BME280;8943;51.110;-4.158;2022-09-20T09:41:22;102251.59;;;22.36;48.89
17649;BME280;8943;51.110;-4.158;2022-09-20T09:44:02;102260.25;;;22.40;48.95
17649;BME280;8943;51.110;-4.158;2022-09-20T09:46:33;102261.66;;;22.44;49.01
17649;BME280;8943;51.110;-4.158;2022-09-20T09:49:05;102262.91;;;22.49;48.91
17649;BME280;8943;51.110;-4.158;2022-09-20T09:51:39;102260.28;;;22.57;48.64
17649;BME280;8943;51.110;-4.158;2022-09-20T09:54:15;102268.28;;;22.59;48.96
17649;BME280;8943;51.110;-4.158;2022-09-20T09:56:58;102253.63;;;22.70;48.71
17649;BME280;8943;51.110;-4.158;2022-09-20T09:59:37;102257.19;;;22.70;48.52
17649;BME280;8943;51.110;-4.158;2022-09-20T10:02:25;102264.25;;;22.81;48.37
17649;BME280;8943;51.110;-4.158;2022-09-20T10:05:01;102265.50;;;22.86;48.27
17649;BME280;8943;51.110;-4.158;2022-09-20T10:07:37;102272.06;;;22.94;48.12
17649;BME280;8943;51.110;-4.158;2022-09-20T10:10:19;102267.72;;;23.01;48.30
17649;BME280;8943;51.110;-4.158;2022-09-20T10:13:02;102268.38;;;23.03;48.22
17649;BME280;8943;51.110;-4.158;2022-09-20T10:15:39;102263.50;;;23.06;47.92
17649;BME280;8943;51.110;-4.158;2022-09-20T10:18:18;102270.16;;;23.12;47.88
17649;BME280;8943;51.110;-4.158;2022-09-20T10:21:02;102269.88;;;23.15;47.98
17649;BME280;8943;51.110;-4.158;2022-09-20T10:23:45;102265.09;;;23.17;47.81
17649;BME280;8943;51.110;-4.158;2022-09-20T10:26:41;102269.88;;;23.15;47.83
17649;BME280;8943;51.110;-4.158;2022-09-20T10:29:20;102270.03;;;23.13;47.99
17649;BME280;8943;51.110;-4.158;2022-09-20T10:31:56;102266.22;;;23.06;47.78
17649;BME280;8943;51.110;-4.158;2022-09-20T10:37:49;102264.38;;;22.89;47.90
17649;BME280;8943;51.110;-4.158;2022-09-20T10:40:27;102267.19;;;22.87;47.98
17649;BME280;8943;51.110;-4.158;2022-09-20T10:43:24;102261.78;;;22.87;48.08
17649;BME280;8943;51.110;-4.158;2022-09-20T10:46:01;102261.53;;;22.81;48.19
17649;BME280;8943;51.110;-4.158;2022-09-20T10:49:01;102268.84;;;22.80;48.46
17649;BME280;8943;51.110;-4.158;2022-09-20T10:51:38;102264.94;;;22.83;48.53
17649;BME280;8943;51.110;-4.158;2022-09-20T10:54:18;102260.47;;;22.92;48.65
17649;BME280;8943;51.110;-4.158;2022-09-20T10:57:06;102260.19;;;22.95;48.53
17649;BME280;8943;51.110;-4.158;2022-09-20T10:59:41;102269.41;;;23.02;48.24
17649;BME280;8943;51.110;-4.158;2022-09-20T11:02:28;102267.41;;;23.04;48.35
17649;BME280;8943;51.110;-4.158;2022-09-20T11:05:16;102268.78;;;23.08;48.34
17649;BME280;8943;51.110;-4.158;2022-09-20T11:07:58;102264.44;;;23.15;47.98
17649;BME280;8943;51.110;-4.158;2022-09-20T11:10:33;102266.19;;;23.24;48.03
17649;BME280;8943;51.110;-4.158;2022-09-20T11:13:07;102270.25;;;23.46;47.58
17649;BME280;8943;51.110;-4.158;2022-09-20T11:15:42;102270.53;;;23.61;47.60
17649;BME280;8943;51.110;-4.158;2022-09-20T11:18:14;102264.69;;;23.74;46.97
17649;BME280;8943;51.110;-4.158;2022-09-20T11:20:54;102267.97;;;23.85;47.02
17649;BME280;8943;51.110;-4.158;2022-09-20T11:23:28;102267.06;;;24.03;46.68
17649;BME280;8943;51.110;-4.158;2022-09-20T11:26:09;102270.19;;;24.24;46.18
17649;BME280;8943;51.110;-4.158;2022-09-20T11:28:44;102263.47;;;24.45;45.70
17649;BME280;8943;51.110;-4.158;2022-09-20T11:31:20;102275.44;;;24.60;45.45
17649;BME280;8943;51.110;-4.158;2022-09-20T11:33:52;102266.56;;;24.58;44.41
17649;BME280;8943;51.110;-4.158;2022-09-20T11:36:26;102271.28;;;24.39;44.25
17649;BME280;8943;51.110;-4.158;2022-09-20T11:39:00;102257.91;;;24.12;43.98
17649;BME280;8943;51.110;-4.158;2022-09-20T11:41:30;102264.94;;;23.88;44.44
17649;BME280;8943;51.110;-4.158;2022-09-20T11:44:03;102259.63;;;23.61;44.39
17649;BME280;8943;51.110;-4.158;2022-09-20T11:46:38;102259.09;;;23.31;44.44
17649;BME280;8943;51.110;-4.158;2022-09-20T11:49:13;102260.09;;;23.04;44.79
17649;BME280;8943;51.110;-4.158;2022-09-20T11:52:17;102259.06;;;22.87;44.91
17649;BME280;8943;51.110;-4.158;2022-09-20T11:55:00;102253.84;;;22.76;45.13
17649;BME280;8943;51.110;-4.158;2022-09-20T11:57:34;102257.88;;;22.72;45.37
17649;BME280;8943;51.110;-4.158;2022-09-20T12:00:05;102252.63;;;22.71;45.33
17649;BME280;8943;51.110;-4.158;2022-09-20T12:02:42;102251.59;;;22.72;45.19
17649;BME280;8943;51.110;-4.158;2022-09-20T12:05:25;102249.97;;;22.79;45.34
17649;BME280;8943;51.110;-4.158;2022-09-20T12:07:54;102247.19;;;22.88;45.18
17649;BME280;8943;51.110;-4.158;2022-09-20T12:10:25;102255.75;;;22.94;44.95
17649;BME280;8943;51.110;-4.158;2022-09-20T12:12:57;102258.06;;;23.06;45.07
17649;BME280;8943;51.110;-4.158;2022-09-20T12:15:30;102246.31;;;23.24;44.73
17649;BME280;8943;51.110;-4.158;2022-09-20T12:21:10;102254.09;;;23.45;44.37
17649;BME280;8943;51.110;-4.158;2022-09-20T12:24:19;102248.19;;;23.49;43.40
17649;BME280;8943;51.110;-4.158;2022-09-20T12:26:49;102243.66;;;23.58;43.00
17649;BME280;8943;51.110;-4.158;2022-09-20T12:29:54;102241.91;;;23.57;42.73
17649;BME280;8943;51.110;-4.158;2022-09-20T12:32:39;102238.13;;;23.68;42.37
17649;BME280;8943;51.110;-4.158;2022-09-20T12:38:45;102240.44;;;23.88;42.92
17649;BME280;8943;51.110;-4.158;2022-09-20T12:41:19;102235.03;;;23.97;42.03
17649;BME280;8943;51.110;-4.158;2022-09-20T12:44:00;102237.88;;;23.87;41.46
17649;BME280;8943;51.110;-4.158;2022-09-20T12:46:41;102234.78;;;23.82;41.74
17649;BME280;8943;51.110;-4.158;2022-09-20T12:49:36;102237.34;;;23.83;41.77
17649;BME280;8943;51.110;-4.158;2022-09-20T12:52:27;102231.25;;;23.89;41.95
17649;BME280;8943;51.110;-4.158;2022-09-20T12:55:27;102231.06;;;23.91;41.79
17649;BME280;8943;51.110;-4.158;2022-09-20T12:58:00;102230.75;;;23.94;41.21
17649;BME280;8943;51.110;-4.158;2022-09-20T13:00:34;102236.38;;;23.93;41.13
17649;BME280;8943;51.110;-4.158;2022-09-20T13:03:21;102236.00;;;23.87;41.04
17649;BME280;8943;51.110;-4.158;2022-09-20T13:06:21;102225.25;;;23.86;41.54
17649;BME280;8943;51.110;-4.158;2022-09-20T13:08:55;102220.34;;;23.89;41.50
17649;BME280;8943;51.110;-4.158;2022-09-20T13:11:28;102229.59;;;23.97;41.76
17649;BME280;8943;51.110;-4.158;2022-09-20T13:14:00;102228.78;;;24.12;41.95
17649;BME280;8943;51.110;-4.158;2022-09-20T13:16:43;102224.22;;;24.21;41.02
17649;BME280;8943;51.110;-4.158;2022-09-20T13:19:15;102223.22;;;24.30;41.13
17649;BME280;8943;51.110;-4.158;2022-09-20T13:21:52;102230.25;;;24.41;41.49
17649;BME280;8943;51.110;-4.158;2022-09-20T13:24:24;102222.78;;;24.59;41.08
17649;BME280;8943;51.110;-4.158;2022-09-20T13:26:55;102222.97;;;24.66;40.30
17649;BME280;8943;51.110;-4.158;2022-09-20T13:29:31;102224.34;;;24.70;40.49
17649;BME280;8943;51.110;-4.158;2022-09-20T13:32:14;102224.34;;;24.78;40.91
17649;BME280;8943;51.110;-4.158;2022-09-20T13:34:43;102217.03;;;24.95;40.47
17649;BME280;8943;51.110;-4.158;2022-09-20T13:37:17;102224.56;;;25.09;40.23
17649;BME280;8943;51.110;-4.158;2022-09-20T13:39:52;102212.25;;;25.05;39.32
17649;BME280;8943;51.110;-4.158;2022-09-20T13:42:21;102207.81;;;25.04;39.98
17649;BME280;8943;51.110;-4.158;2022-09-20T13:44:50;102210.03;;;25.17;39.51
17649;BME280;8943;51.110;-4.158;2022-09-20T13:47:24;102210.53;;;25.29;39.64
17649;BME280;8943;51.110;-4.158;2022-09-20T13:49:59;102220.38;;;25.46;39.58
17649;BME280;8943;51.110;-4.158;2022-09-20T13:52:30;102215.75;;;25.63;39.36
17649;BME280;8943;51.110;-4.158;2022-09-20T13:54:59;102213.81;;;25.72;38.81
17649;BME280;8943;51.110;-4.158;2022-09-20T13:57:28;102208.34;;;25.72;38.24
17649;BME280;8943;51.110;-4.158;2022-09-20T13:59:57;102210.94;;;25.73;36.66
17649;BME280;8943;51.110;-4.158;2022-09-20T14:02:30;102212.63;;;25.82;36.79
17649;BME280;8943;51.110;-4.158;2022-09-20T14:05:00;102213.75;;;25.32;39.54
17649;BME280;8943;51.110;-4.158;2022-09-20T14:07:31;102214.09;;;25.37;39.06
17649;BME280;8943;51.110;-4.158;2022-09-20T14:10:02;102213.63;;;25.89;37.35
17649;BME280;8943;51.110;-4.158;2022-09-20T14:12:31;102204.53;;;26.28;36.81
17649;BME280;8943;51.110;-4.158;2022-09-20T14:15:06;102204.66;;;26.12;37.91
17649;BME280;8943;51.110;-4.158;2022-09-20T14:17:35;102205.91;;;26.24;38.07
17649;BME280;8943;51.110;-4.158;2022-09-20T14:20:05;102212.69;;;26.36;38.96
17649;BME280;8943;51.110;-4.158;2022-09-20T14:22:35;102207.69;;;26.71;38.02
17649;BME280;8943;51.110;-4.158;2022-09-20T14:25:20;102211.50;;;27.08;37.04